Time;durP1;ratioP1;P1;durP2;ratioP2;P2;SDS_P1;SDS_P2;PMS_P1;PMS_P2;Temp;Humidity;BMP_temperature;BMP_pressure;BME280_temperature;BME280_humidity;BME280_pressure;Samples;Min_cycle;Max_cycle;Signal;HPM_P1;HPM_P2
2022/10/18 00:02:24;;;;;;;;;;;17.90;79.30;;;;;;5095139;28;20002;-79
2022/10/18 00:04:51;;;;;;;;;;;17.80;78.50;;;;;;5113293;28;19916;-81
2022/10/18 00:07:17;;;;;;;;;;;17.90;79.40;;;;;;5112981;28;19935;-80
2022/10/18 00:09:44;;;;;;;;;;;18.00;79.90;;;;;;5112983;28;19915;-80
2022/10/18 00:12:11;;;;;;;;;;;18.00;78.60;;;;;;5113227;28;19915;-80
2022/10/18 00:14:37;;;;;;;;;;;18.10;79.10;;;;;;5113128;28;19911;-81
2022/10/18 00:17:04;;;;;;;;;;;18.10;78.30;;;;;;5113343;28;19955;-81
2022/10/18 00:19:31;;;;;;;;;;;18.10;78.90;;;;;;5113131;28;19969;-81
2022/10/18 00:21:57;;;;;;;;;;;18.20;79.50;;;;;;5113313;28;19926;-81
2022/10/18 00:24:24;;;;;;;;;;;18.20;80.60;;;;;;5112986;28;19920;-80
2022/10/18 03:59:10;;;;;;;;;;;18.50;84.20;;;;;;5126166;27;19934;-82
2022/10/18 04:01:36;;;;;;;;;;;18.40;85.10;;;;;;5110776;27;20015;-82
2022/10/18 04:04:03;;;;;;;;;;;18.30;86.00;;;;;;5100614;27;19923;-82
2022/10/18 04:06:30;;;;;;;;;;;18.30;84.90;;;;;;5133874;27;20262;-81
2022/10/18 04:08:57;;;;;;;;;;;18.30;84.50;;;;;;5133767;27;19908;-82
2022/10/18 04:11:23;;;;;;;;;;;18.30;84.50;;;;;;5102628;28;20347;-82
2022/10/18 04:13:50;;;;;;;;;;;18.30;84.30;;;;;;5116471;27;19919;-82
2022/10/18 04:16:17;;;;;;;;;;;18.30;84.20;;;;;;5109508;27;20274;-83
2022/10/18 04:18:43;;;;;;;;;;;18.30;84.50;;;;;;5096894;28;20387;-78
2022/10/18 04:21:10;;;;;;;;;;;18.30;84.50;;;;;;5098926;28;19908;-79
2022/10/18 04:23:37;;;;;;;;;;;18.40;83.90;;;;;;5103122;28;19985;-79
2022/10/18 04:26:04;;;;;;;;;;;18.40;83.90;;;;;;5109614;28;20285;-80
2022/10/18 04:28:30;;;;;;;;;;;18.40;83.80;;;;;;5110175;27;19918;-80
2022/10/18 04:30:57;;;;;;;;;;;18.50;83.20;;;;;;5130852;27;19915;-79
2022/10/18 04:33:24;;;;;;;;;;;18.40;83.40;;;;;;5130373;27;19927;-80
2022/10/18 04:35:51;;;;;;;;;;;18.50;83.80;;;;;;5123804;27;20236;-82
2022/10/18 04:38:17;;;;;;;;;;;18.60;84.20;;;;;;5114307;27;19946;-78
2022/10/18 04:40:44;;;;;;;;;;;18.60;83.40;;;;;;5130375;27;19908;-78
2022/10/18 04:43:11;;;;;;;;;;;18.60;83.60;;;;;;5130678;27;19967;-79
2022/10/18 04:45:38;;;;;;;;;;;18.60;83.70;;;;;;5112421;28;20250;-78
2022/10/18 04:48:05;;;;;;;;;;;18.60;83.60;;;;;;5128093;27;19923;-81
2022/10/18 04:50:31;;;;;;;;;;;18.50;83.70;;;;;;5103011;27;19916;-77
2022/10/18 04:52:58;;;;;;;;;;;18.50;83.50;;;;;;5130358;27;19912;-74
2022/10/18 04:55:24;;;;;;;;;;;18.50;84.00;;;;;;5124756;27;19923;-75
2022/10/18 04:57:52;;;;;;;;;;;18.50;83.90;;;;;;5118617;28;19918;-76
2022/10/18 05:00:19;;;;;;;;;;;18.50;84.10;;;;;;5108404;28;19928;-76
2022/10/18 05:02:45;;;;;;;;;;;18.50;84.30;;;;;;5110028;28;19907;-77
2022/10/18 05:05:12;;;;;;;;;;;18.50;84.20;;;;;;5108008;28;19950;-79
2022/10/18 05:07:39;;;;;;;;;;;18.50;84.40;;;;;;5101942;28;20437;-79
2022/10/18 05:10:05;;;;;;;;;;;18.50;84.50;;;;;;5110028;28;19949;-80
2022/10/18 05:12:32;;;;;;;;;;;18.50;84.40;;;;;;5106713;28;19912;-78
2022/10/18 05:14:59;;;;;;;;;;;18.50;84.60;;;;;;5093987;28;19962;-77
2022/10/18 05:17:25;;;;;;;;;;;18.50;84.80;;;;;;5100208;28;19915;-79
2022/10/18 05:19:52;;;;;;;;;;;18.50;85.10;;;;;;5109615;28;19918;-78
2022/10/18 05:22:19;;;;;;;;;;;18.50;85.20;;;;;;5096554;28;20066;-79
2022/10/18 05:24:45;;;;;;;;;;;18.50;86.00;;;;;;5091357;28;19928;-75
2022/10/18 05:27:12;;;;;;;;;;;18.50;88.90;;;;;;5089172;28;19958;-78
2022/10/18 05:29:39;;;;;;;;;;;18.30;89.90;;;;;;5089443;28;19920;-75
2022/10/18 05:32:05;;;;;;;;;;;18.20;90.90;;;;;;5089336;28;20015;-75
2022/10/18 05:34:32;;;;;;;;;;;18.00;91.20;;;;;;5090461;28;20012;-75
2022/10/18 05:36:59;;;;;;;;;;;17.80;91.10;;;;;;5089112;28;19923;-75
2022/10/18 05:39:25;;;;;;;;;;;17.90;92.10;;;;;;5090016;28;19908;-78
2022/10/18 05:41:52;;;;;;;;;;;17.80;92.40;;;;;;5090927;28;19926;-78
2022/10/18 05:44:19;;;;;;;;;;;17.70;92.20;;;;;;5088821;28;19963;-78
2022/10/18 05:46:45;;;;;;;;;;;17.70;92.20;;;;;;5092578;28;19909;-79
2022/10/18 05:49:12;;;;;;;;;;;17.70;92.40;;;;;;5092299;28;19970;-78
2022/10/18 05:51:39;;;;;;;;;;;17.70;92.30;;;;;;5092879;28;20400;-80
2022/10/18 05:54:05;;;;;;;;;;;17.70;92.70;;;;;;5091717;28;19923;-80
2022/10/18 05:56:32;;;;;;;;;;;17.70;93.00;;;;;;5082276;28;19947;-79
2022/10/18 05:58:58;;;;;;;;;;;17.70;93.00;;;;;;5092325;28;19912;-78
2022/10/18 06:01:25;;;;;;;;;;;17.70;93.00;;;;;;5109026;28;19927;-78
2022/10/18 06:03:52;;;;;;;;;;;17.70;93.00;;;;;;5112984;28;20568;-82
2022/10/18 06:06:19;;;;;;;;;;;17.70;93.30;;;;;;5112941;28;19908;-79
2022/10/18 06:08:48;;;;;;;;;;;17.70;93.40;;;;;;5111709;28;19968;-79
2022/10/18 06:11:15;;;;;;;;;;;17.70;93.50;;;;;;5113163;28;19964;-78
2022/10/18 06:13:42;;;;;;;;;;;17.70;93.40;;;;;;5085575;28;20395;-78
2022/10/18 06:16:09;;;;;;;;;;;17.80;93.40;;;;;;5113079;28;19931;-79
2022/10/18 06:18:36;;;;;;;;;;;17.80;93.10;;;;;;5111663;28;19938;-79
2022/10/18 06:21:03;;;;;;;;;;;17.80;92.70;;;;;;5112794;28;19933;-79
2022/10/18 09:09:22;;;;;;;;;;;18.00;93.70;;;;;;5124886;28;20891;-81
2022/10/18 09:11:51;;;;;;;;;;;18.00;93.80;;;;;;5104722;28;19946;-81
2022/10/18 09:14:30;;;;;;;;;;;18.10;93.90;;;;;;5088139;28;19969;-81
2022/10/18 09:17:17;;;;;;;;;;;18.10;93.90;;;;;;5086245;28;20363;-80
2022/10/18 09:20:08;;;;;;;;;;;18.10;94.00;;;;;;5094385;28;19984;-80
2022/10/18 09:22:38;;;;;;;;;;;18.10;94.10;;;;;;5091548;28;19918;-81
2022/10/18 09:25:04;;;;;;;;;;;18.10;94.10;;;;;;5103795;28;20031;-80
2022/10/18 09:27:34;;;;;;;;;;;18.10;94.20;;;;;;5095739;28;19955;-80
2022/10/18 09:30:16;;;;;;;;;;;18.10;94.30;;;;;;5082926;28;19915;-80
2022/10/18 09:33:01;;;;;;;;;;;18.10;94.20;;;;;;5100966;28;20052;-81
2022/10/18 09:35:30;;;;;;;;;;;18.10;94.40;;;;;;5080050;28;19938;-80
2022/10/18 09:38:03;;;;;;;;;;;18.10;94.40;;;;;;5094247;28;20389;-80
2022/10/18 09:40:32;;;;;;;;;;;18.10;94.50;;;;;;5075894;28;19912;-80
2022/10/18 09:42:59;;;;;;;;;;;18.10;94.60;;;;;;5074777;28;20404;-80
2022/10/18 09:45:27;;;;;;;;;;;18.10;94.60;;;;;;5073483;28;19939;-80
2022/10/18 09:47:57;;;;;;;;;;;18.20;94.60;;;;;;5074806;28;19912;-81
2022/10/18 09:50:44;;;;;;;;;;;18.20;94.60;;;;;;5075992;28;20290;-82
2022/10/18 09:53:17;;;;;;;;;;;18.20;94.70;;;;;;5083823;28;19977;-77
2022/10/18 09:55:59;;;;;;;;;;;18.10;94.70;;;;;;5092685;28;20347;-81
2022/10/18 09:58:26;;;;;;;;;;;18.10;94.70;;;;;;5086859;28;19908;-82
2022/10/18 10:00:53;;;;;;;;;;;18.10;94.70;;;;;;5073602;28;20384;-81
2022/10/18 10:03:19;;;;;;;;;;;18.20;94.80;;;;;;5071836;28;19965;-82
2022/10/18 10:05:46;;;;;;;;;;;18.20;94.90;;;;;;5089828;28;19935;-82
2022/10/18 10:08:13;;;;;;;;;;;18.20;94.90;;;;;;5076140;28;19969;-79
2022/10/18 10:10:40;;;;;;;;;;;18.10;94.90;;;;;;5098267;28;20014;-80
2022/10/18 10:13:21;;;;;;;;;;;18.20;95.00;;;;;;5089516;28;19908;-81
2022/10/18 10:15:57;;;;;;;;;;;18.10;95.00;;;;;;5101582;28;19912;-81
2022/10/18 10:18:29;;;;;;;;;;;18.10;95.00;;;;;;5081891;27;19947;-80
2022/10/18 10:20:59;;;;;;;;;;;18.20;95.00;;;;;;5116124;27;19999;-80
2022/10/18 10:23:27;;;;;;;;;;;18.10;95.00;;;;;;5095717;28;20437;-83
2022/10/18 10:26:16;;;;;;;;;;;18.20;95.10;;;;;;5108615;28;19927;-81
2022/10/18 10:28:47;;;;;;;;;;;18.20;95.00;;;;;;5097720;27;19912;-82
2022/10/18 10:31:29;;;;;;;;;;;18.20;95.10;;;;;;5100595;28;19914;-82
2022/10/18 10:34:03;;;;;;;;;;;18.20;95.10;;;;;;5089550;28;20377;-84
2022/10/18 10:36:30;;;;;;;;;;;18.20;95.20;;;;;;5109484;28;19919;-84
2022/10/18 10:39:03;;;;;;;;;;;18.20;95.20;;;;;;5107491;28;19919;-83
2022/10/18 10:41:30;;;;;;;;;;;18.20;95.10;;;;;;5111166;28;19918;-83
2022/10/18 10:43:56;;;;;;;;;;;18.20;95.20;;;;;;5087633;28;19916;-84
2022/10/18 10:46:25;;;;;;;;;;;18.20;95.20;;;;;;5105591;27;19920;-81
2022/10/18 10:48:55;;;;;;;;;;;18.20;95.30;;;;;;5091177;28;20004;-79
2022/10/18 10:51:28;;;;;;;;;;;18.20;95.30;;;;;;5123750;27;20485;-80
2022/10/18 10:53:58;;;;;;;;;;;18.20;95.40;;;;;;5097668;27;19974;-86
2022/10/18 10:56:32;;;;;;;;;;;18.20;95.40;;;;;;5111460;27;20376;-81
2022/10/18 10:59:07;;;;;;;;;;;18.20;95.40;;;;;;5081793;28;19916;-86
2022/10/18 11:01:33;;;;;;;;;;;18.20;95.40;;;;;;5096987;27;19968;-79
2022/10/18 11:04:01;;;;;;;;;;;18.20;95.50;;;;;;5113613;27;19926;-76
2022/10/18 11:27:42;;;;;;;;;;;18.20;95.50;;;;;;5102627;27;19931;-76
2022/10/18 11:30:22;;;;;;;;;;;18.20;95.60;;;;;;5120862;27;20461;-77
2022/10/18 11:32:58;;;;;;;;;;;18.20;95.50;;;;;;5108101;27;19919;-77
2022/10/18 11:35:24;;;;;;;;;;;18.20;95.50;;;;;;5109646;27;20001;-77
2022/10/18 11:37:57;;;;;;;;;;;18.20;95.50;;;;;;5119558;27;19918;-77
2022/10/18 11:40:33;;;;;;;;;;;18.20;95.50;;;;;;5093608;28;20035;-76
2022/10/18 11:43:18;;;;;;;;;;;18.20;95.50;;;;;;5109949;28;19916;-77
2022/10/18 11:45:51;;;;;;;;;;;18.20;95.40;;;;;;5098101;28;19926;-82
2022/10/18 11:48:20;;;;;;;;;;;18.20;95.40;;;;;;5108372;28;20290;-83
2022/10/18 11:50:52;;;;;;;;;;;18.20;95.30;;;;;;5113246;28;19973;-83
2022/10/18 11:53:51;;;;;;;;;;;18.20;95.30;;;;;;5091025;28;19912;-83
2022/10/18 11:56:18;;;;;;;;;;;18.20;95.30;;;;;;5020809;28;19916;-83
2022/10/18 11:59:03;;;;;;;;;;;18.20;95.20;;;;;;5089484;28;19927;-83
2022/10/18 12:01:33;;;;;;;;;;;18.20;95.20;;;;;;5110098;28;19940;-83
2022/10/18 12:04:19;;;;;;;;;;;18.20;95.20;;;;;;5094067;28;19912;-83
2022/10/18 12:06:47;;;;;;;;;;;18.20;95.00;;;;;;5093233;28;19930;-83
2022/10/18 12:09:19;;;;;;;;;;;18.10;94.80;;;;;;5110946;28;20397;-83
2022/10/18 12:11:53;;;;;;;;;;;18.10;94.90;;;;;;5094376;28;20297;-83
2022/10/18 12:14:24;;;;;;;;;;;18.10;95.00;;;;;;5093694;28;19912;-83
2022/10/18 12:16:50;;;;;;;;;;;18.20;95.00;;;;;;5093328;28;20064;-83
2022/10/18 12:19:21;;;;;;;;;;;18.20;95.00;;;;;;5093575;28;20002;-83
2022/10/18 12:21:48;;;;;;;;;;;18.20;95.00;;;;;;5098137;27;20025;-83
2022/10/18 12:24:17;;;;;;;;;;;18.20;94.90;;;;;;5098476;27;20441;-83
2022/10/18 12:48:31;;;;;;;;;;;18.00;94.20;;;;;;5098978;27;19946;-83
2022/10/18 12:51:04;;;;;;;;;;;18.00;94.20;;;;;;5095659;27;19915;-83
2022/10/18 12:53:31;;;;;;;;;;;18.00;94.20;;;;;;5128342;27;19907;-83
2022/10/18 12:56:16;;;;;;;;;;;18.00;94.30;;;;;;5098831;27;19911;-83
2022/10/18 12:58:43;;;;;;;;;;;18.00;94.40;;;;;;5102563;28;20242;-83
2022/10/18 13:01:10;;;;;;;;;;;18.00;94.40;;;;;;5121645;27;19912;-83
2022/10/18 13:03:38;;;;;;;;;;;18.00;94.40;;;;;;5129462;28;20353;-83
2022/10/18 13:06:04;;;;;;;;;;;18.10;94.20;;;;;;5102805;28;19920;-83
2022/10/18 13:08:36;;;;;;;;;;;18.00;94.10;;;;;;5097564;28;19919;-83
2022/10/18 13:11:09;;;;;;;;;;;18.00;94.10;;;;;;5133637;28;19914;-83
2022/10/18 13:13:51;;;;;;;;;;;18.00;94.10;;;;;;5120654;28;19919;-83
2022/10/18 13:16:27;;;;;;;;;;;18.00;94.20;;;;;;5128514;28;20258;-83
2022/10/18 13:19:02;;;;;;;;;;;18.00;93.80;;;;;;5103582;28;19912;-83
2022/10/18 13:21:28;;;;;;;;;;;18.00;93.80;;;;;;5133029;28;19915;-83
2022/10/18 13:24:18;;;;;;;;;;;17.90;93.80;;;;;;5131844;28;20373;-83
2022/10/18 13:26:45;;;;;;;;;;;17.90;93.80;;;;;;5123671;28;19916;-83
2022/10/18 13:29:24;;;;;;;;;;;17.90;93.80;;;;;;5124887;27;19919;-83
2022/10/18 13:31:56;;;;;;;;;;;17.90;93.90;;;;;;5113510;28;19911;-83
2022/10/18 13:34:23;;;;;;;;;;;17.90;94.00;;;;;;5133055;28;19954;-83
2022/10/18 13:37:00;;;;;;;;;;;18.00;94.10;;;;;;5110153;28;20343;-83
2022/10/18 13:39:26;;;;;;;;;;;18.00;93.90;;;;;;5106867;28;19912;-83
2022/10/18 13:41:56;;;;;;;;;;;17.90;93.90;;;;;;5114270;28;19915;-83
2022/10/18 13:44:27;;;;;;;;;;;18.00;93.90;;;;;;5128965;28;19916;-83
2022/10/18 13:46:54;;;;;;;;;;;18.00;93.90;;;;;;5103053;28;20365;-83
2022/10/18 13:49:30;;;;;;;;;;;17.90;93.80;;;;;;5132372;28;19998;-83
2022/10/18 13:52:26;;;;;;;;;;;17.90;93.80;;;;;;5132487;28;19991;-83
2022/10/18 13:54:52;;;;;;;;;;;17.90;93.80;;;;;;5123695;28;20392;-83
2022/10/18 13:57:25;;;;;;;;;;;17.90;93.90;;;;;;5119950;28;19957;-82
2022/10/18 14:00:10;;;;;;;;;;;17.90;93.90;;;;;;5128449;28;19919;-82
2022/10/18 14:03:00;;;;;;;;;;;17.90;93.80;;;;;;5090340;28;19912;-83
2022/10/18 14:05:27;;;;;;;;;;;17.90;93.90;;;;;;5122733;27;20372;-83
2022/10/18 14:07:58;;;;;;;;;;;17.80;93.80;;;;;;5125672;27;20264;-83
2022/10/18 14:10:56;;;;;;;;;;;17.80;93.90;;;;;;5114033;27;20393;-83
2022/10/18 14:13:24;;;;;;;;;;;17.80;93.90;;;;;;5109075;27;19920;-83
2022/10/18 14:15:51;;;;;;;;;;;17.80;94.10;;;;;;5114945;27;19911;-83
2022/10/18 14:18:19;;;;;;;;;;;17.80;94.10;;;;;;5117669;27;19914;-83
2022/10/18 14:20:52;;;;;;;;;;;17.80;94.10;;;;;;5111915;28;19923;-82
2022/10/18 14:23:27;;;;;;;;;;;17.80;94.20;;;;;;5103143;27;19915;-83
2022/10/18 14:26:13;;;;;;;;;;;17.80;94.20;;;;;;5129323;27;19923;-83
2022/10/18 14:28:40;;;;;;;;;;;17.80;94.20;;;;;;5127072;27;19972;-83
2022/10/18 14:31:16;;;;;;;;;;;17.80;94.10;;;;;;5101979;27;20007;-83
2022/10/18 14:33:47;;;;;;;;;;;17.80;94.10;;;;;;5099541;28;19943;-83
2022/10/18 14:36:19;;;;;;;;;;;17.80;94.10;;;;;;5103527;27;19981;-83
2022/10/18 14:38:49;;;;;;;;;;;17.80;94.10;;;;;;5135891;27;19969;-83
2022/10/18 14:41:17;;;;;;;;;;;17.80;94.10;;;;;;5126289;27;19957;-83
2022/10/18 14:43:44;;;;;;;;;;;17.80;94.10;;;;;;5129336;27;19957;-83
2022/10/18 14:46:16;;;;;;;;;;;17.70;94.10;;;;;;5120801;27;19965;-83
2022/10/18 14:48:50;;;;;;;;;;;17.80;94.20;;;;;;5131310;27;19919;-83
2022/10/18 14:51:17;;;;;;;;;;;17.70;94.10;;;;;;5084676;28;19966;-83
2022/10/18 14:53:44;;;;;;;;;;;17.70;94.00;;;;;;5098376;27;20364;-83
2022/10/18 14:56:19;;;;;;;;;;;17.70;94.00;;;;;;5103903;28;19907;-83
2022/10/18 14:58:46;;;;;;;;;;;17.70;94.00;;;;;;5108610;27;19918;-83
2022/10/18 15:01:15;;;;;;;;;;;17.70;94.10;;;;;;5102146;28;19951;-82
2022/10/18 15:03:42;;;;;;;;;;;17.70;94.00;;;;;;5100113;27;19915;-83
2022/10/18 15:06:11;;;;;;;;;;;17.70;94.20;;;;;;5124908;27;19919;-82
2022/10/18 15:08:38;;;;;;;;;;;17.70;94.10;;;;;;5092876;27;19912;-83
2022/10/18 15:11:05;;;;;;;;;;;17.70;94.10;;;;;;5103139;28;20366;-83
2022/10/18 15:13:32;;;;;;;;;;;17.80;94.10;;;;;;5094218;28;19959;-83
2022/10/18 15:15:59;;;;;;;;;;;17.70;94.10;;;;;;5096516;28;19951;-83
2022/10/18 15:18:26;;;;;;;;;;;17.80;94.10;;;;;;5108719;27;20388;-82
2022/10/18 15:21:10;;;;;;;;;;;17.80;94.00;;;;;;5123622;27;19922;-83
2022/10/18 15:23:37;;;;;;;;;;;17.80;94.10;;;;;;5127880;27;20262;-81
2022/10/18 15:26:07;;;;;;;;;;;17.80;94.20;;;;;;5131016;27;19973;-82
2022/10/18 15:28:39;;;;;;;;;;;17.70;94.30;;;;;;5106840;28;19912;-81
2022/10/18 15:31:06;;;;;;;;;;;17.70;94.60;;;;;;5113984;27;20006;-83
2022/10/18 15:33:33;;;;;;;;;;;17.70;94.90;;;;;;5108676;27;20407;-77
2022/10/18 15:36:10;;;;;;;;;;;17.60;95.10;;;;;;5111991;27;19919;-78
2022/10/18 15:38:36;;;;;;;;;;;17.60;95.40;;;;;;5088859;27;19907;-77
2022/10/18 15:41:23;;;;;;;;;;;17.50;95.70;;;;;;5097400;28;19958;-77
2022/10/18 15:43:50;;;;;;;;;;;17.50;95.90;;;;;;5088893;27;19994;-77
2022/10/18 15:46:30;;;;;;;;;;;17.40;96.10;;;;;;5115947;27;20324;-77
2022/10/18 15:48:59;;;;;;;;;;;17.40;96.20;;;;;;5079751;28;20014;-77
2022/10/18 15:51:37;;;;;;;;;;;17.40;96.30;;;;;;5091031;28;20305;-76
2022/10/18 15:54:03;;;;;;;;;;;17.30;96.40;;;;;;5107186;27;19952;-76
2022/10/18 15:56:34;;;;;;;;;;;17.30;96.50;;;;;;5123199;27;19947;-77
2022/10/18 15:59:02;;;;;;;;;;;17.30;96.50;;;;;;5128486;27;19925;-77
2022/10/18 16:01:31;;;;;;;;;;;17.30;96.50;;;;;;5094534;28;20433;-77
2022/10/18 16:03:57;;;;;;;;;;;17.30;96.50;;;;;;5124402;27;19907;-77
2022/10/18 16:06:24;;;;;;;;;;;17.30;96.60;;;;;;5123781;27;20307;-78
2022/10/18 16:08:51;;;;;;;;;;;17.30;96.70;;;;;;5126785;27;19912;-77
2022/10/18 16:11:18;;;;;;;;;;;17.30;96.60;;;;;;5114108;27;19912;-77
2022/10/18 16:13:45;;;;;;;;;;;17.30;96.70;;;;;;5131104;27;20365;-77
2022/10/18 16:16:14;;;;;;;;;;;17.30;96.80;;;;;;5116291;27;19941;-77
2022/10/18 16:18:41;;;;;;;;;;;17.30;96.80;;;;;;5132844;27;19912;-78
2022/10/18 16:21:21;;;;;;;;;;;17.30;96.80;;;;;;5125879;27;20289;-77
2022/10/18 16:23:48;;;;;;;;;;;17.30;96.80;;;;;;5118795;27;20341;-78
2022/10/18 16:26:15;;;;;;;;;;;17.30;96.80;;;;;;5122359;27;20381;-78
2022/10/18 16:28:42;;;;;;;;;;;17.30;96.70;;;;;;5097931;28;19907;-78
2022/10/18 16:31:09;;;;;;;;;;;17.30;96.70;;;;;;5110990;28;19929;-78
2022/10/18 16:33:36;;;;;;;;;;;17.30;96.80;;;;;;5103503;27;20011;-78
2022/10/18 16:36:03;;;;;;;;;;;17.30;96.90;;;;;;5120542;27;20257;-78
2022/10/18 16:38:31;;;;;;;;;;;17.30;96.90;;;;;;5133847;27;19986;-78
2022/10/18 16:40:58;;;;;;;;;;;17.30;96.90;;;;;;5113606;27;19927;-78
2022/10/18 16:43:24;;;;;;;;;;;17.30;96.90;;;;;;5129234;27;19919;-78
2022/10/18 16:45:51;;;;;;;;;;;17.30;96.90;;;;;;5117135;27;20335;-78
2022/10/18 16:48:19;;;;;;;;;;;17.30;97.00;;;;;;5115204;27;19919;-78
2022/10/18 16:50:46;;;;;;;;;;;17.30;97.00;;;;;;5133318;27;20017;-79
2022/10/18 16:53:12;;;;;;;;;;;17.30;97.00;;;;;;5117252;27;19920;-79
2022/10/18 16:55:39;;;;;;;;;;;17.30;97.00;;;;;;5111693;28;19919;-78
2022/10/18 16:58:06;;;;;;;;;;;17.30;97.00;;;;;;5133359;27;19907;-79
2022/10/18 17:00:33;;;;;;;;;;;17.30;97.00;;;;;;5098834;28;19919;-78
2022/10/18 17:02:59;;;;;;;;;;;17.30;97.00;;;;;;5132890;28;19907;-79
2022/10/18 17:05:26;;;;;;;;;;;17.30;97.00;;;;;;5117268;28;19942;-79
2022/10/18 17:07:53;;;;;;;;;;;17.30;97.00;;;;;;5105849;28;19919;-79
2022/10/18 17:10:20;;;;;;;;;;;17.30;97.00;;;;;;5106711;28;20002;-79
2022/10/18 17:12:47;;;;;;;;;;;17.30;97.00;;;;;;5115099;28;19914;-79
2022/10/18 17:15:13;;;;;;;;;;;17.30;97.00;;;;;;5121358;28;20002;-79
2022/10/18 17:17:40;;;;;;;;;;;17.20;97.00;;;;;;5126452;28;19912;-79
2022/10/18 17:20:07;;;;;;;;;;;17.20;97.00;;;;;;5122180;28;19915;-81
2022/10/18 17:22:34;;;;;;;;;;;17.20;97.00;;;;;;5129025;28;19915;-81
2022/10/18 17:25:00;;;;;;;;;;;17.30;97.00;;;;;;5113906;28;20409;-81
2022/10/18 17:27:27;;;;;;;;;;;17.30;97.00;;;;;;5119394;28;20331;-81
2022/10/18 17:29:54;;;;;;;;;;;17.30;96.90;;;;;;5105031;28;19934;-81
2022/10/18 17:32:20;;;;;;;;;;;17.30;97.00;;;;;;5092742;28;19912;-81
2022/10/18 17:34:47;;;;;;;;;;;17.30;97.00;;;;;;5110652;28;20897;-81
2022/10/18 17:37:14;;;;;;;;;;;17.30;96.90;;;;;;5111581;28;19911;-81
2022/10/18 17:39:40;;;;;;;;;;;17.30;97.00;;;;;;5117981;28;19912;-81
2022/10/18 17:42:07;;;;;;;;;;;17.30;97.00;;;;;;5128232;27;20014;-81
2022/10/18 17:44:34;;;;;;;;;;;17.30;96.90;;;;;;5105892;28;19951;-80
2022/10/18 17:47:00;;;;;;;;;;;17.30;96.90;;;;;;5114596;27;19959;-80
2022/10/18 17:49:27;;;;;;;;;;;17.30;96.80;;;;;;5106547;28;19920;-80
2022/10/18 17:51:53;;;;;;;;;;;17.30;96.90;;;;;;5095067;28;19922;-80
2022/10/18 17:54:20;;;;;;;;;;;17.20;96.90;;;;;;5100104;28;19912;-81
2022/10/18 17:56:47;;;;;;;;;;;17.30;96.90;;;;;;5104342;28;19912;-81
2022/10/18 17:59:13;;;;;;;;;;;17.30;96.90;;;;;;5097126;28;20338;-81
2022/10/18 18:01:40;;;;;;;;;;;17.30;96.90;;;;;;5102077;28;20350;-81
2022/10/18 18:04:07;;;;;;;;;;;17.30;97.00;;;;;;5097673;28;19912;-80
2022/10/18 18:06:34;;;;;;;;;;;17.30;97.00;;;;;;5087520;28;19916;-77
2022/10/18 18:09:03;;;;;;;;;;;17.30;97.00;;;;;;5111266;28;19912;-85
2022/10/18 18:11:30;;;;;;;;;;;17.20;97.00;;;;;;5113997;28;20409;-84
2022/10/18 18:13:57;;;;;;;;;;;17.20;97.00;;;;;;5107683;28;19916;-80
2022/10/18 18:16:24;;;;;;;;;;;17.30;97.10;;;;;;5101013;28;19919;-79
